createdAt,value
2023-05-14T00:00:36.649Z,14.00
2023-05-14T00:03:27.429Z,13.93
2023-05-14T00:05:55.729Z,13.84
2023-05-14T00:08:23.837Z,13.76
2023-05-14T00:10:52.470Z,13.70
2023-05-14T00:13:20.616Z,13.65
2023-05-14T00:15:48.878Z,13.51
2023-05-14T00:18:17.005Z,13.51
2023-05-14T00:20:45.506Z,13.45
2023-05-14T00:23:13.680Z,13.38
2023-05-14T00:25:41.947Z,13.32
2023-05-14T00:28:10.093Z,13.21
2023-05-14T00:30:38.339Z,13.22
2023-05-14T00:33:07.152Z,13.19
2023-05-14T00:35:36.018Z,13.19
2023-05-14T00:38:04.756Z,13.22
2023-05-14T00:40:33.151Z,13.16
2023-05-14T00:43:01.701Z,13.21
2023-05-14T00:45:29.911Z,13.17
2023-05-14T00:47:58.209Z,13.16
2023-05-14T00:50:26.937Z,13.12
2023-05-14T00:52:55.288Z,13.08
2023-05-14T00:55:23.815Z,13.04
2023-05-14T00:57:54.766Z,13.02
2023-05-14T01:00:23.273Z,12.98
2023-05-14T01:02:51.910Z,12.89
2023-05-14T01:05:20.306Z,12.82
2023-05-14T01:08:23.261Z,12.74
2023-05-14T01:10:57.895Z,12.72
2023-05-14T01:13:41.142Z,12.69
2023-05-14T01:16:13.825Z,12.63
2023-05-14T01:18:44.353Z,12.59
2023-05-14T01:21:36.444Z,12.58
2023-05-14T01:24:05.033Z,12.55
2023-05-14T01:26:33.872Z,12.49
2023-05-14T01:29:23.272Z,12.51
2023-05-14T01:31:54.332Z,12.52
2023-05-14T01:34:24.694Z,12.51
2023-05-14T01:36:53.925Z,12.40
2023-05-14T01:39:24.334Z,12.45
2023-05-14T01:41:54.405Z,12.35
2023-05-14T01:44:22.686Z,12.37
2023-05-14T01:46:50.903Z,12.32
2023-05-14T01:49:19.812Z,12.20
2023-05-14T01:51:47.972Z,12.25
2023-05-14T01:54:16.368Z,12.20
2023-05-14T01:56:44.524Z,12.15
2023-05-14T01:59:12.612Z,12.12
2023-05-14T02:01:40.868Z,11.94
2023-05-14T02:04:09.152Z,12.09
2023-05-14T02:06:37.346Z,12.07
2023-05-14T02:09:05.799Z,12.05
2023-05-14T02:11:33.945Z,12.02
2023-05-14T02:14:02.070Z,11.88
2023-05-14T02:16:30.238Z,11.93
2023-05-14T02:18:58.396Z,11.90
2023-05-14T02:21:26.587Z,11.89
2023-05-14T02:23:54.723Z,11.87
2023-05-14T02:26:22.947Z,11.83
2023-05-14T02:28:51.858Z,11.83
2023-05-14T02:31:20.451Z,11.83
2023-05-14T02:33:48.606Z,11.83
2023-05-14T02:36:16.755Z,11.74
2023-05-14T02:38:44.816Z,11.80
2023-05-14T02:41:12.938Z,11.77
2023-05-14T02:43:41.387Z,11.72
2023-05-14T02:46:09.546Z,11.66
2023-05-14T02:48:37.694Z,11.55
2023-05-14T02:51:05.847Z,11.61
2023-05-14T02:53:33.951Z,11.60
2023-05-14T02:56:02.100Z,11.59
2023-05-14T02:58:30.476Z,11.56
2023-05-14T03:00:58.709Z,11.55
2023-05-14T03:03:29.430Z,11.57
2023-05-14T03:05:58.168Z,11.58
2023-05-14T03:08:26.330Z,11.56
2023-05-14T03:10:54.505Z,11.57
2023-05-14T03:13:22.586Z,11.62
2023-05-14T03:15:54.974Z,11.67
2023-05-14T03:18:23.734Z,11.72
2023-05-14T03:20:52.034Z,11.71
2023-05-14T03:23:20.202Z,11.69
2023-05-14T03:25:48.415Z,11.70
2023-05-14T03:28:16.520Z,11.70
2023-05-14T03:30:44.804Z,11.73
2023-05-14T03:33:13.046Z,11.73
2023-05-14T03:35:41.153Z,11.74
2023-05-14T03:38:09.322Z,11.74
2023-05-14T03:40:37.466Z,11.74
2023-05-14T03:43:05.559Z,11.73
2023-05-14T03:45:34.078Z,11.69
2023-05-14T03:48:02.254Z,11.67
2023-05-14T03:50:31.366Z,11.70
2023-05-14T03:52:59.478Z,11.77
2023-05-14T03:55:27.717Z,11.86
2023-05-14T03:57:55.856Z,11.85
2023-05-14T04:00:24.536Z,11.97
2023-05-14T04:02:54.315Z,11.98
2023-05-14T04:05:26.884Z,12.03
2023-05-14T04:07:55.639Z,12.10
2023-05-14T04:10:23.888Z,12.16
2023-05-14T04:12:52.238Z,12.25
2023-05-14T04:15:20.607Z,12.37
2023-05-14T04:17:48.830Z,12.46
2023-05-14T04:20:17.020Z,12.55
2023-05-14T04:22:45.295Z,12.65
2023-05-14T04:25:13.456Z,12.73
2023-05-14T04:27:41.725Z,12.80
2023-05-14T04:30:10.342Z,12.80
2023-05-14T04:32:39.192Z,12.94
2023-05-14T04:35:09.129Z,13.01
2023-05-14T04:37:37.322Z,13.07
2023-05-14T04:40:07.054Z,13.13
2023-05-14T04:42:35.145Z,13.21
2023-05-14T04:45:05.352Z,13.33
2023-05-14T04:47:33.579Z,13.41
2023-05-14T04:50:02.179Z,13.47
2023-05-14T04:52:30.360Z,13.53
2023-05-14T04:54:58.508Z,13.58
2023-05-14T04:57:26.845Z,13.67
2023-05-14T04:59:55.087Z,13.76
2023-05-14T05:02:23.873Z,13.85
2023-05-14T05:04:52.070Z,13.94
2023-05-14T05:07:20.280Z,14.02
2023-05-14T05:09:48.353Z,14.15
2023-05-14T05:12:16.493Z,14.25
2023-05-14T05:14:44.686Z,14.36
2023-05-14T05:17:12.800Z,14.40
2023-05-14T05:19:44.286Z,14.60
2023-05-14T05:22:12.782Z,14.74
2023-05-14T05:24:41.076Z,14.87
2023-05-14T05:27:09.179Z,14.99
2023-05-14T05:29:37.604Z,15.11
2023-05-14T05:32:06.401Z,15.22
2023-05-14T05:34:35.968Z,15.34
2023-05-14T05:37:06.079Z,15.46
2023-05-14T05:39:35.251Z,15.58
2023-05-14T05:42:06.137Z,15.69
2023-05-14T05:44:34.636Z,15.84
2023-05-14T05:47:02.944Z,15.97
2023-05-14T05:49:31.122Z,16.10
2023-05-14T05:51:59.242Z,16.23
2023-05-14T05:54:27.398Z,16.37
2023-05-14T05:56:55.708Z,16.50
2023-05-14T05:59:24.828Z,16.64
2023-05-14T06:01:53.370Z,16.77
2023-05-14T06:04:21.659Z,16.91
2023-05-14T06:06:49.760Z,17.04
2023-05-14T06:09:17.968Z,17.17
2023-05-14T06:11:46.175Z,17.27
2023-05-14T06:14:14.366Z,17.42
2023-05-14T06:16:42.475Z,17.57
2023-05-14T06:19:11.292Z,17.68
2023-05-14T06:21:39.612Z,17.76
2023-05-14T06:24:07.940Z,17.78
2023-05-14T06:26:36.068Z,17.91
2023-05-14T06:29:04.163Z,17.93
2023-05-14T06:31:32.328Z,18.00
2023-05-14T06:34:00.457Z,18.08
2023-05-14T06:36:28.625Z,18.18
2023-05-14T06:38:56.951Z,18.28
2023-05-14T06:41:25.052Z,18.33
2023-05-14T06:43:53.197Z,18.37
2023-05-14T06:46:21.670Z,18.43
2023-05-14T06:48:49.887Z,18.53
2023-05-14T06:51:18.051Z,18.61
2023-05-14T06:53:47.000Z,18.70
2023-05-14T06:56:15.137Z,18.79
2023-05-14T06:58:43.316Z,18.89
2023-05-14T07:01:11.495Z,18.96
2023-05-14T07:03:39.699Z,19.02
2023-05-14T07:06:07.930Z,19.12
2023-05-14T07:08:36.247Z,19.25
2023-05-14T07:11:04.572Z,19.38
2023-05-14T07:13:32.690Z,19.50
2023-05-14T07:16:00.795Z,19.62
2023-05-14T07:18:29.017Z,19.75
2023-05-14T07:20:57.383Z,19.89
2023-05-14T07:23:25.535Z,20.03
2023-05-14T07:25:53.751Z,20.14
2023-05-14T07:28:21.917Z,20.26
2023-05-14T07:30:50.078Z,20.38
2023-05-14T07:33:18.376Z,20.52
2023-05-14T07:35:46.619Z,20.64
2023-05-14T07:38:15.438Z,20.76
2023-05-14T07:40:43.737Z,20.85
2023-05-14T07:43:11.940Z,21.00
2023-05-14T07:45:40.284Z,21.07
2023-05-14T07:48:08.776Z,21.17
2023-05-14T07:50:37.874Z,21.26
2023-05-14T07:53:06.209Z,21.34
2023-05-14T07:55:34.291Z,21.43
2023-05-14T07:58:02.491Z,21.51
2023-05-14T08:00:30.855Z,21.57
2023-05-14T08:02:59.421Z,21.66
2023-05-14T08:05:27.788Z,21.77
2023-05-14T08:07:56.021Z,21.83
2023-05-14T08:10:24.340Z,21.99
2023-05-14T08:12:52.767Z,22.11
2023-05-14T08:15:21.162Z,22.20
2023-05-14T08:17:49.376Z,22.25
2023-05-14T08:20:17.765Z,22.29
2023-05-14T08:22:45.917Z,22.37
2023-05-14T08:25:14.068Z,22.47
2023-05-14T08:27:42.265Z,22.50
2023-05-14T08:30:10.843Z,22.60
2023-05-14T08:32:39.548Z,22.66
2023-05-14T08:35:08.421Z,22.74
2023-05-14T08:37:36.548Z,22.82
2023-05-14T08:40:04.996Z,22.89
2023-05-14T08:42:33.358Z,23.01
2023-05-14T08:45:03.321Z,23.12
2023-05-14T08:47:32.012Z,23.13
2023-05-14T08:50:08.428Z,23.24
2023-05-14T08:52:36.523Z,23.35
2023-05-14T08:55:06.669Z,23.62
2023-05-14T08:57:35.525Z,23.80
2023-05-14T09:00:08.823Z,23.93
2023-05-14T09:02:37.538Z,24.02
2023-05-14T09:05:07.571Z,24.25
2023-05-14T09:07:36.268Z,24.50
2023-05-14T09:10:04.930Z,24.66
2023-05-14T09:12:33.200Z,24.88
2023-05-14T09:15:01.334Z,25.09
2023-05-14T09:17:29.601Z,25.33
2023-05-14T09:19:58.557Z,25.52
2023-05-14T09:22:31.924Z,25.67
2023-05-14T09:25:07.123Z,25.87
2023-05-14T09:27:36.535Z,26.17
2023-05-14T09:30:12.625Z,26.42
2023-05-14T09:32:50.640Z,26.65
2023-05-14T09:35:23.981Z,26.81
2023-05-14T09:37:53.989Z,27.00
2023-05-14T09:40:24.581Z,27.15
2023-05-14T09:42:53.504Z,27.34
2023-05-14T09:45:21.985Z,27.13
2023-05-14T09:47:50.353Z,26.80
2023-05-14T09:50:18.657Z,26.45
2023-05-14T09:52:46.809Z,26.52
2023-05-14T09:55:16.187Z,26.42
2023-05-14T09:57:45.180Z,26.49
2023-05-14T10:00:13.918Z,26.90
2023-05-14T10:02:45.703Z,27.11
2023-05-14T10:05:16.063Z,27.45
2023-05-14T10:07:51.823Z,27.80
2023-05-14T10:10:21.464Z,28.28
2023-05-14T10:13:04.761Z,28.49
2023-05-14T10:15:59.512Z,28.66
2023-05-14T10:18:31.793Z,28.63
2023-05-14T10:21:08.147Z,28.20
2023-05-14T10:23:38.170Z,27.96
2023-05-14T10:26:07.072Z,28.23
2023-05-14T10:28:36.987Z,28.57
2023-05-14T10:31:05.212Z,28.44
2023-05-14T10:33:47.348Z,28.76
2023-05-14T10:36:15.749Z,28.91
2023-05-14T10:38:43.967Z,28.33
2023-05-14T10:41:18.061Z,27.77
2023-05-14T10:43:46.294Z,27.88
2023-05-14T10:46:15.158Z,28.33
2023-05-14T10:48:44.538Z,28.69
2023-05-14T10:51:13.068Z,28.45
2023-05-14T10:53:43.300Z,28.44
2023-05-14T10:56:14.776Z,28.10
2023-05-14T10:58:44.939Z,27.74
2023-05-14T11:01:14.036Z,28.05
2023-05-14T11:03:46.970Z,28.34
2023-05-14T11:06:16.404Z,28.06
2023-05-14T11:08:46.618Z,27.71
2023-05-14T11:11:15.121Z,27.20
2023-05-14T11:13:44.861Z,27.01
2023-05-14T11:16:23.436Z,27.40
2023-05-14T11:19:03.522Z,27.88
2023-05-14T11:21:33.051Z,28.37
2023-05-14T11:24:01.764Z,28.89
2023-05-14T11:26:31.814Z,28.54
2023-05-14T11:29:00.243Z,28.08
2023-05-14T11:31:28.517Z,27.61
2023-05-14T11:33:57.084Z,27.22
2023-05-14T11:36:25.299Z,26.94
2023-05-14T11:38:53.545Z,27.47
2023-05-14T11:41:23.163Z,28.08
2023-05-14T11:43:51.721Z,28.63
2023-05-14T11:46:20.103Z,28.83
2023-05-14T11:48:48.573Z,28.88
2023-05-14T11:51:17.024Z,28.95
2023-05-14T11:53:46.334Z,28.59
2023-05-14T11:56:14.501Z,28.09
2023-05-14T11:58:48.690Z,27.66
2023-05-14T12:01:17.322Z,27.22
2023-05-14T12:03:45.999Z,26.84
2023-05-14T12:06:14.235Z,26.51
2023-05-14T12:08:42.499Z,26.23
2023-05-14T12:11:10.670Z,25.87
2023-05-14T12:13:39.845Z,25.64
2023-05-14T12:16:08.060Z,25.52
2023-05-14T12:18:37.279Z,25.46
2023-05-14T12:21:08.463Z,25.37
2023-05-14T12:23:39.174Z,25.29
2023-05-14T12:26:09.237Z,25.38
2023-05-14T12:28:43.615Z,25.43
2023-05-14T12:31:12.118Z,25.39
2023-05-14T12:33:40.549Z,25.31
2023-05-14T12:38:42.009Z,25.19
2023-05-14T12:41:10.131Z,25.09
2023-05-14T12:43:38.371Z,24.99
2023-05-14T12:46:06.743Z,24.96
2023-05-14T12:48:34.978Z,24.99
2023-05-14T12:51:03.299Z,25.01
2023-05-14T12:53:31.525Z,24.93
2023-05-14T12:55:59.642Z,24.85
2023-05-14T12:58:27.764Z,24.80
2023-05-14T13:00:56.667Z,24.64
2023-05-14T13:03:25.355Z,24.29
2023-05-14T13:05:54.469Z,24.03
2023-05-14T13:08:25.146Z,23.82
2023-05-14T13:10:54.231Z,23.67
2023-05-14T13:13:23.082Z,23.61
2023-05-14T13:15:51.242Z,23.65
2023-05-14T13:18:19.535Z,23.56
2023-05-14T13:20:48.038Z,23.44
2023-05-14T13:23:16.219Z,23.28
2023-05-14T13:25:44.334Z,23.32
2023-05-14T13:28:12.629Z,23.64
2023-05-14T13:30:41.038Z,24.16
2023-05-14T13:33:09.260Z,24.49
2023-05-14T13:35:37.665Z,24.85
2023-05-14T13:38:05.909Z,25.43
2023-05-14T13:40:34.011Z,25.88
2023-05-14T13:43:03.178Z,26.29
2023-05-14T13:45:31.275Z,26.51
2023-05-14T13:47:59.465Z,26.92
2023-05-14T13:50:27.607Z,27.31
2023-05-14T13:52:55.691Z,27.50
2023-05-14T13:55:23.950Z,27.63
2023-05-14T13:57:52.163Z,27.58
2023-05-14T14:00:20.532Z,27.76
2023-05-14T14:02:48.636Z,27.91
2023-05-14T14:05:16.888Z,28.27
2023-05-14T14:07:45.784Z,28.47
2023-05-14T14:10:14.777Z,28.49
2023-05-14T14:12:42.891Z,28.36
2023-05-14T14:15:11.551Z,28.30
2023-05-14T14:17:41.836Z,28.32
2023-05-14T14:20:10.780Z,28.29
2023-05-14T14:22:39.145Z,28.13
2023-05-14T14:25:08.647Z,28.22
2023-05-14T14:27:38.675Z,28.42
2023-05-14T14:30:17.097Z,28.31
2023-05-14T14:32:46.989Z,28.13
2023-05-14T14:35:17.030Z,27.82
2023-05-14T14:37:49.244Z,27.90
2023-05-14T14:40:17.918Z,27.91
2023-05-14T14:42:46.071Z,27.97
2023-05-14T14:45:14.255Z,28.07
2023-05-14T14:47:47.244Z,28.32
2023-05-14T14:50:15.672Z,28.19
2023-05-14T14:52:46.005Z,27.99
2023-05-14T14:55:14.313Z,27.94
2023-05-14T14:57:42.504Z,27.99
2023-05-14T15:00:11.467Z,28.10
2023-05-14T15:02:42.308Z,28.12
2023-05-14T15:05:10.662Z,27.87
2023-05-14T15:07:38.860Z,27.72
2023-05-14T15:10:07.642Z,27.60
2023-05-14T15:12:35.956Z,27.47
2023-05-14T15:15:04.380Z,27.43
2023-05-14T15:17:32.546Z,27.39
2023-05-14T15:20:00.712Z,27.46
2023-05-14T15:22:28.888Z,27.60
2023-05-14T15:24:57.030Z,27.53
2023-05-14T15:27:25.319Z,27.20
2023-05-14T15:29:53.825Z,26.97
2023-05-14T15:32:22.285Z,26.95
2023-05-14T15:34:50.547Z,26.99
2023-05-14T15:37:18.838Z,26.83
2023-05-14T15:39:47.024Z,26.83
2023-05-14T15:42:15.241Z,26.99
2023-05-14T15:44:43.394Z,26.93
2023-05-14T15:47:11.485Z,26.79
2023-05-14T15:49:39.632Z,26.90
2023-05-14T15:52:07.995Z,27.01
2023-05-14T15:54:36.189Z,26.86
2023-05-14T15:57:04.616Z,26.67
2023-05-14T15:59:32.819Z,26.28
2023-05-14T16:02:00.963Z,25.84
2023-05-14T16:04:29.237Z,25.56
2023-05-14T16:07:08.042Z,25.45
2023-05-14T16:09:38.866Z,25.37
2023-05-14T16:12:08.099Z,25.23
2023-05-14T16:14:36.542Z,25.14
2023-05-14T16:17:04.898Z,25.00
2023-05-14T16:19:32.987Z,24.80
2023-05-14T16:22:01.429Z,24.58
2023-05-14T16:24:29.717Z,24.28
2023-05-14T16:26:58.483Z,24.00
2023-05-14T16:29:26.545Z,23.78
2023-05-14T16:31:54.979Z,23.50
2023-05-14T16:34:23.114Z,23.47
2023-05-14T16:36:51.269Z,23.40
2023-05-14T16:39:20.108Z,23.36
2023-05-14T16:41:48.220Z,23.21
2023-05-14T16:44:16.610Z,23.03
2023-05-14T16:46:45.012Z,22.94
2023-05-14T16:49:14.203Z,22.91
2023-05-14T16:51:44.018Z,22.88
2023-05-14T16:54:12.165Z,22.82
2023-05-14T16:56:40.623Z,22.77
2023-05-14T16:59:08.978Z,22.71
2023-05-14T17:01:37.691Z,22.63
2023-05-14T17:04:06.003Z,22.50
2023-05-14T17:06:34.797Z,22.42
2023-05-14T17:09:03.788Z,22.30
2023-05-14T17:11:31.855Z,22.18
2023-05-14T17:13:58.872Z,22.10
2023-05-14T17:16:26.271Z,22.03
2023-05-14T17:18:56.571Z,22.02
2023-05-14T17:21:24.936Z,21.97
2023-05-14T17:23:53.191Z,21.92
2023-05-14T17:26:21.984Z,21.84
2023-05-14T17:28:50.120Z,21.76
2023-05-14T17:31:18.444Z,21.68
2023-05-14T17:33:46.817Z,21.58
2023-05-14T17:36:15.402Z,21.53
2023-05-14T17:38:43.970Z,21.51
2023-05-14T17:41:12.451Z,21.48
2023-05-14T17:43:40.605Z,21.45
2023-05-14T17:46:08.923Z,21.41
2023-05-14T17:48:37.018Z,21.35
2023-05-14T17:51:05.195Z,21.27
2023-05-14T17:53:33.365Z,21.14
2023-05-14T17:56:01.635Z,21.07
2023-05-14T17:58:30.066Z,21.01
2023-05-14T18:00:58.275Z,20.96
2023-05-14T18:03:26.833Z,20.85
2023-05-14T18:05:55.304Z,20.81
2023-05-14T18:08:23.533Z,20.86
2023-05-14T18:10:51.774Z,20.77
2023-05-14T18:13:20.268Z,20.75
2023-05-14T18:15:48.499Z,20.75
2023-05-14T18:18:18.887Z,20.71
2023-05-14T18:20:47.198Z,20.70
2023-05-14T18:23:15.517Z,20.67
2023-05-14T18:25:43.900Z,20.60
2023-05-14T18:28:13.269Z,20.55
2023-05-14T18:30:44.165Z,20.49
2023-05-14T18:33:13.526Z,20.39
2023-05-14T18:35:44.100Z,20.28
2023-05-14T18:38:13.970Z,20.20
2023-05-14T18:40:42.085Z,20.11
2023-05-14T18:43:11.748Z,19.98
2023-05-14T18:45:40.534Z,19.88
2023-05-14T18:48:10.072Z,19.72
2023-05-14T18:50:39.369Z,19.64
2023-05-14T18:53:08.518Z,19.53
2023-05-14T18:55:37.183Z,19.42
2023-05-14T18:58:05.450Z,19.34
2023-05-14T19:00:33.586Z,19.28
2023-05-14T19:03:01.776Z,19.21
2023-05-14T19:05:30.329Z,19.15
2023-05-14T19:07:58.541Z,19.12
2023-05-14T19:10:26.869Z,19.13
2023-05-14T19:12:55.053Z,19.13
2023-05-14T19:15:23.803Z,19.15
2023-05-14T19:17:54.143Z,19.16
2023-05-14T19:20:22.440Z,19.19
2023-05-14T19:22:50.787Z,19.21
2023-05-14T19:25:18.899Z,19.22
2023-05-14T19:27:51.024Z,19.24
2023-05-14T19:30:20.303Z,19.25
2023-05-14T19:32:48.489Z,19.21
2023-05-14T19:35:16.641Z,19.17
2023-05-14T19:37:44.782Z,19.13
2023-05-14T19:40:13.177Z,19.08
2023-05-14T19:42:41.559Z,19.06
2023-05-14T19:45:10.382Z,19.03
2023-05-14T19:47:38.830Z,19.01
2023-05-14T19:50:08.615Z,18.97
2023-05-14T19:52:36.702Z,18.98
2023-05-14T19:55:05.397Z,18.89
2023-05-14T19:57:33.513Z,18.98
2023-05-14T20:00:01.704Z,19.00
2023-05-14T20:02:30.311Z,18.99
2023-05-14T20:04:58.715Z,19.04
2023-05-14T20:07:26.977Z,19.04
2023-05-14T20:09:55.141Z,19.04
2023-05-14T20:12:23.454Z,19.01
2023-05-14T20:14:51.804Z,19.00
2023-05-14T20:17:21.130Z,18.99
2023-05-14T20:19:49.224Z,18.97
2023-05-14T20:22:17.315Z,18.90
2023-05-14T20:24:45.614Z,18.91
2023-05-14T20:27:13.908Z,18.88
2023-05-14T20:29:42.105Z,18.87
2023-05-14T20:32:10.455Z,18.87
2023-05-14T20:34:38.592Z,18.87
2023-05-14T20:37:08.137Z,18.88
2023-05-14T20:39:36.383Z,18.87
2023-05-14T20:42:04.841Z,18.85
2023-05-14T20:44:32.993Z,18.84
2023-05-14T20:47:01.400Z,18.84
2023-05-14T20:49:29.627Z,18.80
2023-05-14T20:51:57.680Z,18.79
2023-05-14T20:54:25.740Z,18.76
2023-05-14T20:56:53.939Z,18.74
2023-05-14T20:59:22.055Z,18.71
2023-05-14T21:01:51.085Z,18.71
2023-05-14T21:04:19.564Z,18.62
2023-05-14T21:06:47.761Z,18.69
2023-05-14T21:09:16.190Z,18.68
2023-05-14T21:11:44.588Z,18.68
2023-05-14T21:14:12.859Z,18.69
2023-05-14T21:16:41.072Z,18.69
2023-05-14T21:19:09.420Z,18.70
2023-05-14T21:21:37.965Z,18.68
2023-05-14T21:24:06.442Z,18.68
2023-05-14T21:26:35.863Z,18.67
2023-05-14T21:29:04.315Z,18.63
2023-05-14T21:31:32.468Z,18.62
2023-05-14T21:34:00.797Z,18.53
2023-05-14T21:36:29.195Z,18.57
2023-05-14T21:38:57.372Z,18.55
2023-05-14T21:41:25.713Z,18.52
2023-05-14T21:43:53.813Z,18.49
2023-05-14T21:46:21.984Z,18.47
2023-05-14T21:48:50.234Z,18.44
2023-05-14T21:51:18.346Z,18.42
2023-05-14T21:53:48.592Z,18.40
2023-05-14T21:56:16.760Z,18.37
2023-05-14T21:58:45.132Z,18.29
2023-05-14T22:01:13.264Z,18.34
2023-05-14T22:03:41.570Z,18.33
2023-05-14T22:06:09.710Z,18.33
2023-05-14T22:08:37.837Z,18.30
2023-05-14T22:11:05.975Z,18.28
2023-05-14T22:13:35.518Z,18.28
2023-05-14T22:16:12.029Z,18.26
2023-05-14T22:18:41.697Z,18.26
2023-05-14T22:21:09.951Z,18.26
2023-05-14T22:23:38.046Z,18.23
2023-05-14T22:26:06.208Z,18.21
2023-05-14T22:28:34.370Z,18.21
2023-05-14T22:31:02.571Z,18.19
2023-05-14T22:33:33.248Z,18.16
2023-05-14T22:36:01.535Z,18.13
2023-05-14T22:38:29.624Z,18.12
2023-05-14T22:40:57.751Z,18.11
2023-05-14T22:43:25.959Z,18.10
2023-05-14T22:45:54.209Z,18.08
2023-05-14T22:48:22.622Z,18.06
2023-05-14T22:50:51.920Z,18.02
2023-05-14T22:53:20.033Z,18.00
2023-05-14T22:55:48.215Z,17.98
2023-05-14T22:58:16.430Z,17.93
2023-05-14T23:00:44.513Z,17.91
2023-05-14T23:03:12.610Z,17.81
2023-05-14T23:05:40.818Z,17.77
2023-05-14T23:08:09.108Z,17.83
2023-05-14T23:10:37.400Z,17.81
2023-05-14T23:13:05.649Z,17.83
2023-05-14T23:15:33.754Z,17.81
2023-05-14T23:18:01.998Z,17.82
2023-05-14T23:20:30.191Z,17.81
2023-05-14T23:22:58.313Z,17.81
2023-05-14T23:25:26.481Z,17.81
2023-05-14T23:27:54.682Z,17.81
2023-05-14T23:30:22.794Z,17.80
2023-05-14T23:32:50.986Z,17.81
2023-05-14T23:35:19.348Z,17.81
2023-05-14T23:37:49.645Z,17.80
2023-05-14T23:40:18.396Z,17.78
2023-05-14T23:42:46.879Z,17.76
2023-05-14T23:45:15.146Z,17.73
2023-05-14T23:47:43.378Z,17.71
2023-05-14T23:50:11.629Z,17.70
2023-05-14T23:52:39.717Z,17.69
2023-05-14T23:55:08.101Z,17.66
2023-05-14T23:57:36.341Z,17.64
